Time;durP1;ratioP1;P1;durP2;ratioP2;P2;SDS_P1;SDS_P2;PMS_P1;PMS_P2;Temp;Humidity;BMP_temperature;BMP_pressure;BME280_temperature;BME280_humidity;BME280_pressure;Samples;Min_cycle;Max_cycle;Signal;HPM_P1;HPM_P2
2023/07/21 00:01:53;;;;;;;4.57;3.15;;;12.00;99.90;;;;;;5047973;28;20417;-64
2023/07/21 00:04:20;;;;;;;4.13;3.38;;;12.00;99.90;;;;;;5046814;28;20049;-64
2023/07/21 00:06:46;;;;;;;4.90;3.20;;;12.10;99.90;;;;;;5033070;28;20064;-65
2023/07/21 00:09:12;;;;;;;6.45;3.72;;;12.10;99.90;;;;;;5046504;28;20041;-65
2023/07/21 00:11:38;;;;;;;4.32;2.92;;;12.10;99.90;;;;;;5049779;28;20045;-65
2023/07/21 00:14:05;;;;;;;5.15;3.50;;;12.10;99.90;;;;;;5048498;28;20094;-64
2023/07/21 00:16:33;;;;;;;5.22;2.90;;;12.10;99.90;;;;;;5046868;28;20371;-65
2023/07/21 00:19:00;;;;;;;4.75;3.17;;;12.10;99.90;;;;;;5047470;28;20055;-64
2023/07/21 00:21:26;;;;;;;3.63;3.13;;;12.20;99.90;;;;;;5047819;28;20041;-65
2023/07/21 00:23:51;;;;;;;3.88;3.33;;;12.20;99.90;;;;;;5048089;28;20407;-65
2023/07/21 00:26:17;;;;;;;6.55;3.55;;;12.20;99.90;;;;;;5050756;28;20040;-64
2023/07/21 00:28:43;;;;;;;4.28;3.58;;;12.20;99.90;;;;;;5065792;28;20079;-65
2023/07/21 00:31:09;;;;;;;5.93;3.95;;;12.30;99.90;;;;;;5069114;28;20070;-65
2023/07/21 00:33:35;;;;;;;6.40;3.75;;;12.20;99.90;;;;;;5067174;28;20055;-65
2023/07/21 00:36:00;;;;;;;4.93;4.03;;;12.20;99.90;;;;;;5067475;28;20045;-65
2023/07/21 00:38:26;;;;;;;4.85;4.05;;;12.20;99.90;;;;;;5068772;28;20384;-65
2023/07/21 00:40:51;;;;;;;5.55;3.38;;;12.20;99.90;;;;;;5065796;28;20344;-65
2023/07/21 00:43:18;;;;;;;9.10;4.25;;;12.20;99.90;;;;;;5068857;28;20123;-65
2023/07/21 00:45:48;;;;;;;8.93;4.05;;;12.20;99.90;;;;;;5061480;28;20458;-65
2023/07/21 00:48:16;;;;;;;6.60;4.32;;;12.10;99.90;;;;;;5048552;28;20052;-64
2023/07/21 00:50:51;;;;;;;6.15;3.83;;;12.10;99.90;;;;;;5028174;28;20041;-65
2023/07/21 00:53:18;;;;;;;6.65;4.55;;;12.10;99.90;;;;;;5047637;28;20037;-64
2023/07/21 00:55:47;;;;;;;7.47;4.28;;;12.10;99.90;;;;;;5047575;28;20060;-64
2023/07/21 00:58:13;;;;;;;5.82;3.83;;;12.20;99.90;;;;;;5046947;28;20071;-65
2023/07/21 01:00:40;;;;;;;5.90;3.97;;;12.20;99.90;;;;;;5048982;28;20044;-65
2023/07/21 01:03:08;;;;;;;6.25;3.80;;;12.20;99.90;;;;;;5045383;28;20477;-65
2023/07/21 01:05:36;;;;;;;6.10;4.50;;;12.20;99.90;;;;;;5046262;28;20040;-65
2023/07/21 01:08:07;;;;;;;5.43;4.35;;;12.20;99.90;;;;;;5049794;28;20064;-65
2023/07/21 01:10:35;;;;;;;7.18;4.25;;;12.20;99.90;;;;;;5046516;28;20025;-64
2023/07/21 01:13:01;;;;;;;5.20;4.10;;;12.20;99.90;;;;;;5046546;28;20124;-65
2023/07/21 01:15:28;;;;;;;6.95;4.78;;;12.20;99.90;;;;;;5046191;28;20103;-64
2023/07/21 01:17:55;;;;;;;5.55;4.32;;;12.20;99.90;;;;;;5046628;28;20064;-65
2023/07/21 01:20:23;;;;;;;9.45;5.05;;;12.10;99.90;;;;;;5048132;28;20108;-65
2023/07/21 01:23:06;;;;;;;7.78;4.88;;;12.10;99.90;;;;;;5045718;28;20057;-65
2023/07/21 01:25:33;;;;;;;7.07;4.35;;;12.00;99.90;;;;;;5048195;28;20136;-64
2023/07/21 01:28:02;;;;;;;8.10;4.07;;;12.00;99.90;;;;;;5047542;28;20380;-64
2023/07/21 01:30:29;;;;;;;5.97;4.25;;;12.00;99.90;;;;;;5045763;28;20506;-64
2023/07/21 01:32:56;;;;;;;6.85;4.38;;;11.90;99.90;;;;;;5048358;28;20121;-64
2023/07/21 01:35:23;;;;;;;7.50;4.50;;;11.90;99.90;;;;;;5044695;28;20045;-65
2023/07/21 01:37:49;;;;;;;7.57;4.35;;;11.90;99.90;;;;;;5048634;28;20120;-65
2023/07/21 01:40:16;;;;;;;6.63;4.28;;;11.80;99.90;;;;;;5046110;28;20068;-65
2023/07/21 01:42:46;;;;;;;5.75;4.22;;;11.80;99.90;;;;;;5061107;28;20673;-65
2023/07/21 01:45:12;;;;;;;7.10;4.57;;;11.70;99.90;;;;;;5072028;28;20095;-65
2023/07/21 01:47:38;;;;;;;6.60;4.20;;;11.70;99.90;;;;;;5069837;28;20047;-65
2023/07/21 01:50:08;;;;;;;6.80;4.57;;;11.60;99.90;;;;;;5071399;28;20040;-65
2023/07/21 01:52:36;;;;;;;7.03;4.50;;;11.60;99.90;;;;;;5070506;28;20085;-64
2023/07/21 01:55:35;;;;;;;6.88;4.43;;;11.60;99.90;;;;;;5066211;28;20041;-64
2023/07/21 01:58:05;;;;;;;6.80;4.15;;;11.60;99.90;;;;;;5070868;28;20036;-64
2023/07/21 02:00:34;;;;;;;8.35;4.97;;;11.60;99.90;;;;;;5058707;28;20057;-65
2023/07/21 02:03:03;;;;;;;5.35;3.83;;;11.60;99.90;;;;;;5048139;28;20033;-65
2023/07/21 02:05:28;;;;;;;5.60;3.58;;;11.50;99.90;;;;;;5052047;28;20068;-64
2023/07/21 02:07:54;;;;;;;5.45;3.67;;;11.50;99.90;;;;;;5049080;28;20045;-64
2023/07/21 02:10:20;;;;;;;6.70;3.70;;;11.50;99.90;;;;;;5051836;28;20037;-64
2023/07/21 02:12:45;;;;;;;4.95;3.63;;;11.50;99.90;;;;;;5049730;28;20124;-65
2023/07/21 02:15:11;;;;;;;4.82;3.40;;;11.40;99.90;;;;;;5032640;28;20061;-64
2023/07/21 02:17:37;;;;;;;8.60;4.20;;;11.40;99.90;;;;;;5050742;28;20037;-64
2023/07/21 02:20:09;;;;;;;5.60;3.30;;;11.30;99.90;;;;;;5048865;28;20164;-64
2023/07/21 02:22:39;;;;;;;5.82;3.60;;;11.40;99.90;;;;;;5052601;28;20040;-65
2023/07/21 02:25:06;;;;;;;4.38;3.45;;;11.40;99.90;;;;;;5050668;28;20037;-64
2023/07/21 02:27:33;;;;;;;6.07;3.33;;;11.30;99.90;;;;;;5050903;28;20131;-65
2023/07/21 02:29:59;;;;;;;5.38;3.22;;;11.40;99.90;;;;;;5049500;28;20801;-64
2023/07/21 02:32:25;;;;;;;5.97;3.78;;;11.40;99.90;;;;;;5049899;28;20068;-65
2023/07/21 02:34:51;;;;;;;3.42;2.95;;;11.30;99.90;;;;;;5058710;28;20079;-65
2023/07/21 02:37:16;;;;;;;5.72;3.25;;;11.30;99.90;;;;;;5071115;28;20091;-65
2023/07/21 02:39:42;;;;;;;4.90;3.53;;;11.30;99.90;;;;;;5070595;28;20605;-65
2023/07/21 02:42:08;;;;;;;6.90;3.25;;;11.30;99.90;;;;;;5072030;28;20117;-65
2023/07/21 02:44:34;;;;;;;5.72;3.00;;;11.30;99.90;;;;;;5068621;28;20056;-64
2023/07/21 02:47:00;;;;;;;5.10;3.15;;;11.30;99.90;;;;;;5059057;28;20048;-64
2023/07/21 02:49:25;;;;;;;5.70;3.20;;;11.30;99.90;;;;;;5046359;28;20040;-64
2023/07/21 02:51:51;;;;;;;4.00;3.05;;;11.30;99.90;;;;;;5051420;28;20044;-64
2023/07/21 02:54:17;;;;;;;6.10;3.28;;;11.40;99.90;;;;;;5050031;28;20091;-64
2023/07/21 02:56:43;;;;;;;5.28;3.40;;;11.40;99.90;;;;;;5050202;28;20511;-64
2023/07/21 02:59:09;;;;;;;4.22;2.92;;;11.40;99.90;;;;;;5033022;28;20142;-65
2023/07/21 03:01:36;;;;;;;7.30;3.30;;;11.40;99.90;;;;;;5047746;28;20199;-64
2023/07/21 03:04:03;;;;;;;4.03;2.95;;;11.30;99.90;;;;;;5049365;28;20053;-64
2023/07/21 03:06:30;;;;;;;7.20;3.35;;;11.30;99.90;;;;;;5049172;28;20049;-64
2023/07/21 03:08:59;;;;;;;5.00;3.30;;;11.20;99.90;;;;;;5048828;28;20459;-64
2023/07/21 03:11:24;;;;;;;4.35;2.95;;;11.20;99.90;;;;;;5050514;28;20143;-65
2023/07/21 03:13:50;;;;;;;4.65;3.25;;;11.20;99.90;;;;;;5047103;28;20116;-64
2023/07/21 03:16:15;;;;;;;4.70;3.15;;;11.10;99.90;;;;;;5050716;28;20067;-65
2023/07/21 03:18:41;;;;;;;7.63;3.47;;;11.10;99.90;;;;;;5047433;28;20067;-64
2023/07/21 03:21:07;;;;;;;6.22;3.28;;;11.20;99.90;;;;;;5030492;28;20040;-64
2023/07/21 03:23:32;;;;;;;3.88;3.17;;;11.10;99.90;;;;;;5049648;28;20049;-64
2023/07/21 03:25:58;;;;;;;4.47;2.63;;;11.10;99.90;;;;;;5048769;28;20087;-64
2023/07/21 03:28:25;;;;;;;4.90;3.03;;;11.10;99.90;;;;;;5050682;28;20053;-64
2023/07/21 03:31:00;;;;;;;4.78;3.35;;;11.10;99.90;;;;;;5048881;28;20126;-65
2023/07/21 03:33:26;;;;;;;4.05;2.85;;;11.10;99.90;;;;;;5067952;28;20471;-64
2023/07/21 03:36:04;;;;;;;4.75;2.95;;;11.00;99.90;;;;;;5068642;28;20052;-65
2023/07/21 03:38:32;;;;;;;5.15;2.80;;;11.00;99.90;;;;;;5067581;28;20044;-65
2023/07/21 03:41:02;;;;;;;4.68;3.40;;;10.90;99.90;;;;;;5070258;28;20047;-65
2023/07/21 03:43:28;;;;;;;4.35;3.20;;;10.90;99.90;;;;;;5067800;28;20066;-65
2023/07/21 03:46:02;;;;;;;4.63;3.05;;;10.90;99.90;;;;;;5064128;28;20424;-64
2023/07/21 03:48:29;;;;;;;6.85;3.10;;;10.80;99.90;;;;;;5049468;28;20116;-65
2023/07/21 03:50:59;;;;;;;4.78;2.80;;;10.80;99.90;;;;;;5055889;28;20135;-64
2023/07/21 03:53:28;;;;;;;4.70;3.05;;;10.80;99.90;;;;;;5068329;28;20040;-64
2023/07/21 03:55:54;;;;;;;4.82;2.80;;;10.80;99.90;;;;;;5067870;28;20086;-64
2023/07/21 03:58:21;;;;;;;6.43;3.15;;;10.80;99.90;;;;;;5066734;28;20072;-65
2023/07/21 04:00:47;;;;;;;5.40;3.10;;;10.80;99.90;;;;;;5070411;28;20115;-65
2023/07/21 04:03:14;;;;;;;5.53;2.50;;;10.80;99.90;;;;;;5065403;28;20422;-65
2023/07/21 04:05:39;;;;;;;7.47;4.15;;;10.80;99.90;;;;;;5067323;28;20352;-66
2023/07/21 04:08:05;;;;;;;3.92;2.80;;;10.70;99.90;;;;;;5062174;28;20037;-65
2023/07/21 04:10:31;;;;;;;6.35;3.38;;;10.80;99.90;;;;;;5047924;28;20036;-64
2023/07/21 04:12:57;;;;;;;6.43;3.47;;;10.70;99.90;;;;;;5050343;28;20049;-65
2023/07/21 04:15:26;;;;;;;4.10;2.90;;;10.80;99.90;;;;;;5045883;28;20080;-65
2023/07/21 04:17:53;;;;;;;5.40;2.75;;;10.80;99.90;;;;;;5047727;28;20041;-64
2023/07/21 04:20:19;;;;;;;4.22;2.58;;;10.90;99.90;;;;;;5053241;28;20506;-65
2023/07/21 04:22:45;;;;;;;4.82;2.60;;;10.90;99.90;;;;;;5068735;28;20074;-64
2023/07/21 04:25:11;;;;;;;3.35;2.75;;;11.00;99.90;;;;;;5040728;28;20068;-64
2023/07/21 04:27:37;;;;;;;3.70;2.72;;;11.00;99.90;;;;;;5047712;28;20041;-64
2023/07/21 04:30:03;;;;;;;3.47;2.65;;;11.10;99.90;;;;;;5048127;28;20073;-64
2023/07/21 04:32:30;;;;;;;4.95;3.13;;;11.10;99.90;;;;;;5046551;28;20115;-65
2023/07/21 04:34:56;;;;;;;6.55;2.90;;;11.10;99.90;;;;;;5046265;28;20041;-64
2023/07/21 04:37:21;;;;;;;4.28;2.60;;;11.10;99.90;;;;;;5049446;28;20522;-65
2023/07/21 04:39:47;;;;;;;6.43;2.92;;;11.10;99.90;;;;;;5047104;28;20045;-65
2023/07/21 04:42:13;;;;;;;4.85;2.60;;;11.20;99.90;;;;;;5032156;28;20045;-65
2023/07/21 04:44:38;;;;;;;4.95;2.88;;;11.20;99.90;;;;;;5045648;28;20053;-65
2023/07/21 04:47:04;;;;;;;4.65;2.92;;;11.30;99.90;;;;;;5059558;28;20041;-65
2023/07/21 04:49:31;;;;;;;4.50;3.10;;;11.40;99.90;;;;;;5065382;28;20524;-65
2023/07/21 04:51:58;;;;;;;4.55;2.33;;;11.50;99.90;;;;;;5068442;28;20032;-65
2023/07/21 04:54:24;;;;;;;3.83;2.75;;;11.50;99.90;;;;;;5069316;28;20060;-65
2023/07/21 04:56:52;;;;;;;5.13;2.72;;;11.60;99.90;;;;;;5067777;28;20476;-65
2023/07/21 04:59:18;;;;;;;6.68;3.42;;;11.70;99.90;;;;;;5065958;28;20051;-64
2023/07/21 05:01:44;;;;;;;4.65;3.03;;;11.80;99.90;;;;;;5068528;28;20045;-65
2023/07/21 05:04:10;;;;;;;8.18;3.10;;;11.80;99.90;;;;;;5063215;28;20059;-65
2023/07/21 05:06:35;;;;;;;6.93;2.70;;;11.90;99.90;;;;;;5069247;28;20036;-65
2023/07/21 05:09:01;;;;;;;4.40;3.00;;;12.00;99.90;;;;;;5065828;28;20136;-65
2023/07/21 05:11:27;;;;;;;4.07;3.10;;;12.20;99.90;;;;;;5067792;28;20037;-65
2023/07/21 05:13:53;;;;;;;5.72;2.75;;;12.30;99.90;;;;;;5066517;28;20047;-65
2023/07/21 05:16:19;;;;;;;5.15;3.35;;;12.40;99.90;;;;;;5064915;28;20048;-65
2023/07/21 05:18:45;;;;;;;9.25;3.40;;;12.50;99.90;;;;;;5067830;28;20395;-65
2023/07/21 05:21:10;;;;;;;4.78;3.13;;;12.60;99.90;;;;;;5063279;28;20044;-65
2023/07/21 05:23:36;;;;;;;4.82;3.45;;;12.70;99.90;;;;;;5068341;28;20072;-65
2023/07/21 05:26:02;;;;;;;5.32;3.30;;;12.80;99.90;;;;;;5066942;28;20041;-65
2023/07/21 05:28:28;;;;;;;5.38;2.95;;;12.90;99.90;;;;;;5067525;28;20034;-66
2023/07/21 05:30:54;;;;;;;6.95;3.38;;;13.10;99.90;;;;;;5061586;28;20108;-65
2023/07/21 05:33:20;;;;;;;4.85;3.30;;;13.20;99.90;;;;;;5044959;28;20039;-65
2023/07/21 05:35:46;;;;;;;6.28;3.10;;;13.20;99.90;;;;;;5062168;28;20040;-65
2023/07/21 05:38:13;;;;;;;4.55;3.03;;;13.30;99.90;;;;;;5063617;28;20124;-65
2023/07/21 05:40:41;;;;;;;5.43;2.97;;;13.40;99.90;;;;;;5057316;28;20123;-65
2023/07/21 05:43:07;;;;;;;6.40;3.03;;;13.40;99.90;;;;;;5059328;28;20206;-65
2023/07/21 05:45:36;;;;;;;3.60;2.88;;;13.50;99.90;;;;;;5064416;28;20383;-65
2023/07/21 05:48:01;;;;;;;4.60;2.97;;;13.60;99.90;;;;;;5045459;28;20040;-65
2023/07/21 05:50:27;;;;;;;6.95;3.90;;;13.70;99.90;;;;;;5052334;28;20401;-65
2023/07/21 05:52:52;;;;;;;5.07;3.25;;;13.90;99.90;;;;;;5055215;28;20135;-65
2023/07/21 05:55:18;;;;;;;5.07;3.08;;;14.10;99.90;;;;;;5048157;28;20087;-66
2023/07/21 05:57:44;;;;;;;4.00;3.00;;;14.30;99.90;;;;;;5029515;28;20546;-66
2023/07/21 06:00:15;;;;;;;4.72;3.05;;;14.50;99.90;;;;;;5054686;28;20051;-65
2023/07/21 06:02:41;;;;;;;3.05;2.42;;;14.70;99.90;;;;;;5017712;28;20048;-66
2023/07/21 06:05:08;;;;;;;5.53;2.80;;;15.00;99.90;;;;;;5051184;28;20162;-66
2023/07/21 06:07:33;;;;;;;4.80;2.30;;;15.20;99.90;;;;;;5046581;28;20066;-66
2023/07/21 06:09:59;;;;;;;3.55;2.22;;;15.40;99.90;;;;;;5052096;28;20614;-66
2023/07/21 06:12:25;;;;;;;3.33;1.73;;;15.60;99.90;;;;;;5041148;28;20037;-66
2023/07/21 06:14:50;;;;;;;2.97;1.95;;;15.70;99.90;;;;;;5046370;28;20032;-66
2023/07/21 06:17:19;;;;;;;3.58;1.65;;;16.00;99.90;;;;;;5056152;28;20619;-66
2023/07/21 06:19:46;;;;;;;5.18;1.55;;;16.20;99.90;;;;;;5043868;28;20048;-66
2023/07/21 06:22:12;;;;;;;5.38;2.20;;;16.50;99.90;;;;;;5044889;28;20134;-66
2023/07/21 06:24:39;;;;;;;4.13;1.63;;;16.70;99.90;;;;;;5048083;28;20441;-66
2023/07/21 06:27:05;;;;;;;3.22;1.65;;;16.90;99.90;;;;;;5060039;28;20049;-67
2023/07/21 06:29:31;;;;;;;3.90;1.70;;;17.10;99.90;;;;;;5049035;28;20047;-67
2023/07/21 06:31:57;;;;;;;1.77;1.38;;;17.30;99.90;;;;;;5049974;28;20044;-66
2023/07/21 06:34:22;;;;;;;2.55;1.70;;;17.30;99.90;;;;;;5061043;28;20437;-66
2023/07/21 06:36:48;;;;;;;5.32;1.38;;;17.50;99.20;;;;;;5069958;28;20116;-66
2023/07/21 06:39:13;;;;;;;2.90;1.48;;;17.60;97.70;;;;;;5066813;28;20116;-66
2023/07/21 06:41:39;;;;;;;3.97;1.30;;;17.80;96.20;;;;;;5068375;28;20098;-66
2023/07/21 06:44:05;;;;;;;3.72;1.58;;;18.00;93.90;;;;;;5066045;28;20067;-66
2023/07/21 06:46:30;;;;;;;2.40;1.35;;;18.20;92.80;;;;;;5056955;28;20051;-67
2023/07/21 06:48:56;;;;;;;2.47;1.70;;;18.40;91.80;;;;;;5069225;28;20036;-67
2023/07/21 06:51:22;;;;;;;2.85;1.40;;;18.60;90.80;;;;;;5066991;28;20336;-66
2023/07/21 06:53:47;;;;;;;4.00;1.20;;;18.70;89.40;;;;;;5067446;28;20040;-66
2023/07/21 06:56:13;;;;;;;5.72;1.30;;;18.90;86.60;;;;;;5069171;28;20075;-67
2023/07/21 06:58:39;;;;;;;2.72;1.40;;;19.00;84.70;;;;;;5066282;28;20052;-67
2023/07/21 07:01:04;;;;;;;3.42;1.17;;;19.10;82.70;;;;;;5067868;28;20075;-67
2023/07/21 07:03:30;;;;;;;3.00;1.23;;;19.20;81.80;;;;;;5066379;28;20045;-67
2023/07/21 07:05:57;;;;;;;3.22;1.20;;;19.50;80.60;;;;;;5069596;28;20392;-67
2023/07/21 07:08:22;;;;;;;4.07;1.38;;;19.50;79.10;;;;;;5068559;28;20044;-67
2023/07/21 07:10:48;;;;;;;3.63;1.20;;;19.80;77.20;;;;;;5066167;28;20454;-67
2023/07/21 07:13:13;;;;;;;2.55;1.25;;;20.00;76.00;;;;;;5068941;28;20040;-67
2023/07/21 07:15:39;;;;;;;6.22;1.38;;;20.20;75.20;;;;;;5068150;28;20064;-68
2023/07/21 07:18:05;;;;;;;3.10;1.23;;;20.10;73.10;;;;;;5060072;28;20147;-68
2023/07/21 07:20:31;;;;;;;2.65;1.17;;;20.50;70.30;;;;;;5065848;28;20037;-67
2023/07/21 07:22:56;;;;;;;4.10;1.20;;;20.60;70.30;;;;;;5070104;28;20074;-68
2023/07/21 07:25:24;;;;;;;4.10;1.08;;;20.70;69.20;;;;;;5067829;28;20082;-67
2023/07/21 07:27:51;;;;;;;2.78;1.48;;;20.70;69.00;;;;;;5065520;28;20047;-67
2023/07/21 07:30:18;;;;;;;2.05;0.88;;;21.00;67.90;;;;;;5068924;28;20044;-69
2023/07/21 07:32:44;;;;;;;1.10;1.00;;;21.10;66.00;;;;;;5067487;28;20098;-67
2023/07/21 07:35:10;;;;;;;1.85;0.93;;;21.20;65.30;;;;;;5066510;28;20036;-67
2023/07/21 07:37:35;;;;;;;3.35;1.20;;;21.30;63.90;;;;;;5069553;28;20037;-67
2023/07/21 07:40:03;;;;;;;2.35;0.98;;;21.50;63.20;;;;;;5066730;28;20044;-68
2023/07/21 07:42:29;;;;;;;2.95;1.20;;;21.70;62.80;;;;;;5069875;28;20112;-67
2023/07/21 07:44:58;;;;;;;4.10;1.13;;;21.80;61.50;;;;;;5065843;28;20052;-68
2023/07/21 07:47:24;;;;;;;3.40;1.20;;;21.90;61.40;;;;;;5066522;28;20041;-67
2023/07/21 07:49:50;;;;;;;2.92;0.90;;;21.90;61.60;;;;;;5064801;28;20596;-68
2023/07/21 07:52:17;;;;;;;2.20;1.08;;;21.90;61.00;;;;;;5065129;28;20033;-68
2023/07/21 07:54:47;;;;;;;2.38;1.17;;;22.30;60.10;;;;;;5067659;28;20089;-68
2023/07/21 07:57:12;;;;;;;2.60;0.90;;;22.60;59.70;;;;;;5067500;28;20047;-68
2023/07/21 07:59:38;;;;;;;2.97;1.13;;;22.80;58.40;;;;;;5067535;28;20047;-67
2023/07/21 08:02:03;;;;;;;3.05;0.88;;;22.80;57.80;;;;;;5062120;28;20127;-68
2023/07/21 08:04:29;;;;;;;2.13;0.70;;;22.80;56.70;;;;;;5063540;28;20047;-68
2023/07/21 08:06:55;;;;;;;2.83;0.90;;;22.80;56.20;;;;;;5068533;28;20060;-69
2023/07/21 08:09:22;;;;;;;1.33;0.90;;;23.00;55.00;;;;;;5066087;28;20122;-68
2023/07/21 08:11:47;;;;;;;1.08;0.70;;;22.90;53.30;;;;;;5067526;28;20128;-68
2023/07/21 08:14:13;;;;;;;1.08;0.70;;;22.90;52.00;;;;;;5063741;28;20517;-68
2023/07/21 08:16:38;;;;;;;1.90;0.80;;;23.00;52.50;;;;;;5065253;28;20407;-69
2023/07/21 08:19:04;;;;;;;2.45;0.60;;;23.30;52.60;;;;;;5054564;28;20104;-69
2023/07/21 08:21:29;;;;;;;1.02;0.52;;;23.70;51.90;;;;;;5058185;28;20035;-69
2023/07/21 08:23:56;;;;;;;3.50;0.70;;;23.60;51.50;;;;;;5066746;28;20098;-68
2023/07/21 08:26:21;;;;;;;2.30;0.85;;;23.60;51.10;;;;;;5062007;28;20042;-68
2023/07/21 08:28:47;;;;;;;2.72;0.85;;;23.70;50.70;;;;;;5064342;28;20689;-68
2023/07/21 08:31:13;;;;;;;2.15;0.90;;;24.00;49.70;;;;;;5064715;28;20032;-69
2023/07/21 08:33:41;;;;;;;1.20;0.70;;;24.20;47.90;;;;;;5063158;28;20519;-68
2023/07/21 08:36:07;;;;;;;1.42;0.73;;;24.40;47.00;;;;;;5050035;28;20036;-70
2023/07/21 08:38:33;;;;;;;1.33;0.85;;;24.90;47.00;;;;;;5065559;28;20106;-67
2023/07/21 08:41:12;;;;;;;1.67;0.98;;;24.50;47.00;;;;;;5066002;28;20580;-68
2023/07/21 08:43:39;;;;;;;1.92;0.98;;;24.80;46.20;;;;;;5068294;28;20056;-69
2023/07/21 08:46:09;;;;;;;1.60;1.13;;;25.00;47.10;;;;;;5066098;28;20044;-69
2023/07/21 08:48:35;;;;;;;0.95;0.70;;;25.20;45.50;;;;;;5064850;28;20044;-69
2023/07/21 08:51:01;;;;;;;1.95;0.68;;;25.90;43.50;;;;;;5050106;28;20098;-69
2023/07/21 08:53:27;;;;;;;1.30;0.80;;;26.20;42.80;;;;;;5065793;28;20033;-68
2023/07/21 08:55:54;;;;;;;2.45;0.80;;;26.50;41.50;;;;;;5067395;28;20093;-72
2023/07/21 08:58:21;;;;;;;2.33;0.80;;;26.30;41.90;;;;;;5066161;28;20068;-68
2023/07/21 09:00:48;;;;;;;0.90;0.52;;;26.90;40.90;;;;;;5068221;28;20064;-70
2023/07/21 09:03:27;;;;;;;1.20;0.80;;;27.30;40.00;;;;;;5064044;28;20484;-68
2023/07/21 09:05:56;;;;;;;2.30;0.80;;;27.40;39.00;;;;;;5057206;28;20456;-70
2023/07/21 09:08:29;;;;;;;1.83;0.88;;;27.60;40.50;;;;;;5058824;28;20618;-68
2023/07/21 09:10:59;;;;;;;1.08;0.60;;;27.60;39.80;;;;;;5064919;28;20554;-69
2023/07/21 09:13:26;;;;;;;1.05;0.77;;;26.60;39.80;;;;;;5067073;28;20607;-68
2023/07/21 09:16:05;;;;;;;0.68;0.60;;;26.10;40.10;;;;;;5062497;28;20041;-69
2023/07/21 09:18:42;;;;;;;2.38;1.10;;;25.60;40.50;;;;;;5045749;28;20388;-68
2023/07/21 09:21:21;;;;;;;0.73;0.73;;;25.30;40.80;;;;;;5062819;28;20048;-68
2023/07/21 09:23:48;;;;;;;1.85;0.63;;;25.70;40.00;;;;;;5056174;28;20043;-68
2023/07/21 09:26:22;;;;;;;2.78;0.90;;;26.30;39.90;;;;;;5060111;28;20041;-67
2023/07/21 09:28:48;;;;;;;1.45;0.70;;;27.20;37.50;;;;;;5064220;28;20169;-69
2023/07/21 09:31:14;;;;;;;2.08;0.75;;;27.50;37.00;;;;;;5065908;28;20037;-69
2023/07/21 09:33:45;;;;;;;2.42;0.80;;;27.30;36.20;;;;;;5062888;28;20041;-68
2023/07/21 09:36:15;;;;;;;0.68;0.65;;;26.80;36.80;;;;;;5063571;28;20049;-68
2023/07/21 09:38:42;;;;;;;1.65;0.70;;;26.90;37.10;;;;;;5064370;28;20100;-69
2023/07/21 09:41:11;;;;;;;1.27;0.90;;;27.50;37.20;;;;;;5062319;28;20037;-68
2023/07/21 09:43:38;;;;;;;1.40;0.70;;;27.90;37.30;;;;;;5027651;28;20111;-68
2023/07/21 09:46:05;;;;;;;0.75;0.50;;;27.70;37.10;;;;;;5065385;28;20684;-68
2023/07/21 09:48:31;;;;;;;0.93;0.50;;;27.50;37.00;;;;;;5063257;28;20049;-67
2023/07/21 09:51:01;;;;;;;0.70;0.65;;;27.00;37.80;;;;;;5053659;28;20128;-68
2023/07/21 09:53:36;;;;;;;1.87;0.70;;;26.50;38.50;;;;;;5051558;28;20391;-67
2023/07/21 09:56:03;;;;;;;0.98;0.80;;;25.70;40.50;;;;;;5065048;28;20714;-67
2023/07/21 09:58:30;;;;;;;1.00;0.65;;;25.30;40.30;;;;;;5066035;28;20447;-67
2023/07/21 10:01:04;;;;;;;1.55;0.77;;;24.90;41.40;;;;;;5064769;28;20434;-67
2023/07/21 10:03:31;;;;;;;1.83;0.80;;;24.70;42.50;;;;;;5064713;28;20028;-67
2023/07/21 10:05:59;;;;;;;1.02;0.75;;;25.40;40.70;;;;;;5069807;28;20039;-67
2023/07/21 10:08:31;;;;;;;1.17;0.60;;;25.70;39.40;;;;;;5066181;28;20039;-68
2023/07/21 10:10:58;;;;;;;0.88;0.70;;;25.50;39.50;;;;;;5051233;28;20505;-67
2023/07/21 10:13:28;;;;;;;1.13;0.80;;;25.30;40.00;;;;;;5068908;28;20506;-68
2023/07/21 10:16:01;;;;;;;;;;;24.80;40.60;;;;;;5068052;28;20344;-67
2023/07/21 10:18:27;;;;;;;1.67;0.70;;;24.30;42.00;;;;;;5047918;28;19985;-68
2023/07/21 10:20:55;;;;;;;0.65;0.65;;;24.10;42.40;;;;;;5047746;28;20082;-67
2023/07/21 10:23:34;;;;;;;1.80;0.90;;;24.90;41.80;;;;;;5061000;28;20127;-67
2023/07/21 10:26:02;;;;;;;2.23;0.97;;;25.70;40.60;;;;;;5046870;28;20040;-67
2023/07/21 10:28:32;;;;;;;1.20;0.77;;;25.70;39.50;;;;;;5065834;28;20109;-68
2023/07/21 10:31:17;;;;;;;;;;;25.30;39.50;;;;;;5051954;28;20044;-67
2023/07/21 10:34:02;;;;;;;1.52;0.80;;;24.70;40.30;;;;;;5046687;28;20450;-67
2023/07/21 10:36:41;;;;;;;1.75;0.85;;;24.60;40.60;;;;;;5037719;28;20033;-66
2023/07/21 10:39:11;;;;;;;1.13;0.82;;;23.90;41.80;;;;;;5046079;28;20138;-66
2023/07/21 10:41:40;;;;;;;2.35;0.98;;;23.80;42.10;;;;;;5037074;28;20525;-67
2023/07/21 10:44:07;;;;;;;3.80;0.82;;;23.40;42.50;;;;;;5045229;28;20120;-66
2023/07/21 10:46:39;;;;;;;4.22;1.25;;;23.20;44.20;;;;;;5036487;28;20040;-64
2023/07/21 10:49:06;;;;;;;7.55;1.77;;;20.80;79.80;;;;;;5049155;28;20091;-70
2023/07/21 10:51:31;;;;;;;8.77;2.58;;;19.70;67.50;;;;;;5042334;28;20258;-67
2023/07/21 10:53:57;;;;;;;9.48;2.58;;;18.10;77.80;;;;;;5055120;28;20120;-68
2023/07/21 10:56:23;;;;;;;5.38;1.98;;;17.60;88.20;;;;;;5050295;28;20472;-68
2023/07/21 10:58:49;;;;;;;8.70;2.17;;;17.00;94.60;;;;;;5051452;28;20091;-69
2023/07/21 11:01:19;;;;;;;5.10;1.92;;;16.90;95.90;;;;;;5063952;28;20052;-68
2023/07/21 11:03:46;;;;;;;3.28;1.60;;;16.90;99.90;;;;;;5055840;28;20051;-67
2023/07/21 11:06:12;;;;;;;4.05;1.52;;;17.10;99.00;;;;;;5053336;28;20318;-70
2023/07/21 11:08:38;;;;;;;2.92;1.50;;;17.60;99.90;;;;;;5066811;28;20086;-68
2023/07/21 11:11:04;;;;;;;2.67;1.75;;;17.60;99.90;;;;;;5060733;28;20431;-71
2023/07/21 11:13:29;;;;;;;2.60;2.30;;;18.00;99.90;;;;;;5067576;28;20116;-70
2023/07/21 11:15:56;;;;;;;2.60;1.90;;;17.70;99.90;;;;;;5065949;28;20040;-70
2023/07/21 11:18:22;;;;;;;2.78;1.73;;;17.60;99.90;;;;;;5063480;28;20768;-68
2023/07/21 11:20:52;;;;;;;2.42;1.80;;;17.60;99.90;;;;;;5049482;28;20079;-70
2023/07/21 11:23:20;;;;;;;2.75;1.90;;;17.60;99.90;;;;;;5056313;28;20037;-69
2023/07/21 11:26:00;;;;;;;2.45;1.60;;;17.70;99.90;;;;;;5063734;28;20395;-69
2023/07/21 11:28:27;;;;;;;2.78;1.70;;;18.00;99.90;;;;;;5061034;28;20036;-69
2023/07/21 11:30:53;;;;;;;2.60;1.70;;;18.30;99.90;;;;;;5067801;28;20436;-70
2023/07/21 11:33:18;;;;;;;3.28;1.50;;;18.70;99.90;;;;;;5065608;28;20036;-68
2023/07/21 11:35:52;;;;;;;2.10;1.90;;;18.60;99.90;;;;;;5063761;28;20037;-69
2023/07/21 11:38:18;;;;;;;2.20;1.67;;;18.60;99.90;;;;;;5065649;28;20533;-67
2023/07/21 11:40:48;;;;;;;3.03;1.92;;;18.30;99.90;;;;;;5066718;28;20040;-69
2023/07/21 11:43:14;;;;;;;3.37;1.93;;;18.10;99.90;;;;;;5004198;28;1282912;-69
2023/07/21 11:45:41;;;;;;;1.88;1.55;;;18.00;99.90;;;;;;5069128;28;20366;-68
2023/07/21 11:48:13;;;;;;;3.22;1.70;;;18.10;99.90;;;;;;5065483;28;20032;-68
2023/07/21 11:50:41;;;;;;;2.42;1.55;;;18.10;99.90;;;;;;5067263;28;20055;-66
2023/07/21 11:53:07;;;;;;;1.92;1.40;;;17.90;99.90;;;;;;5068335;28;20032;-68
2023/07/21 11:55:34;;;;;;;2.00;1.65;;;17.90;99.90;;;;;;5068394;28;20064;-68
2023/07/21 11:57:59;;;;;;;2.53;1.40;;;18.00;99.90;;;;;;5068850;28;20036;-68
2023/07/21 12:00:27;;;;;;;1.70;1.50;;;18.10;99.90;;;;;;5065310;28;20098;-68
2023/07/21 12:02:57;;;;;;;3.08;1.35;;;17.90;99.90;;;;;;5067196;28;20048;-68
2023/07/21 12:05:24;;;;;;;1.65;1.30;;;18.00;99.90;;;;;;5054200;28;20036;-68
2023/07/21 12:07:50;;;;;;;2.67;1.88;;;18.20;99.80;;;;;;5065640;28;20039;-66
2023/07/21 12:10:15;;;;;;;5.85;3.25;;;18.30;97.10;;;;;;5058488;28;20457;-67
2023/07/21 12:12:41;;;;;;;5.20;3.40;;;18.70;94.30;;;;;;5065707;28;20188;-67
2023/07/21 12:15:09;;;;;;;3.05;2.30;;;19.20;92.10;;;;;;5069818;28;20097;-67
2023/07/21 12:17:35;;;;;;;2.28;1.63;;;19.50;91.70;;;;;;5064496;28;20058;-67
2023/07/21 12:20:00;;;;;;;3.17;1.60;;;19.70;90.00;;;;;;5063748;28;20048;-65
2023/07/21 12:22:26;;;;;;;3.13;1.23;;;20.10;88.40;;;;;;5061930;28;20062;-67
2023/07/21 12:24:51;;;;;;;1.42;1.20;;;20.40;86.00;;;;;;5064423;28;20047;-66
2023/07/21 12:27:18;;;;;;;2.47;1.17;;;20.30;84.50;;;;;;5066876;28;20398;-67
2023/07/21 12:29:43;;;;;;;1.17;1.02;;;20.10;85.30;;;;;;5065838;28;20140;-68
2023/07/21 12:32:09;;;;;;;1.35;1.20;;;19.90;82.50;;;;;;5050546;28;20117;-66
2023/07/21 12:34:34;;;;;;;1.40;1.00;;;19.80;83.00;;;;;;5065358;28;20039;-66
2023/07/21 12:37:00;;;;;;;1.13;1.02;;;19.70;83.90;;;;;;5062530;28;20109;-66
2023/07/21 12:39:26;;;;;;;1.45;1.30;;;19.60;84.70;;;;;;5065289;28;20048;-66
2023/07/21 12:41:51;;;;;;;1.73;1.30;;;19.70;84.40;;;;;;5066590;28;20075;-66
2023/07/21 12:44:17;;;;;;;1.92;1.20;;;19.60;85.80;;;;;;5063217;28;20056;-66
2023/07/21 12:46:42;;;;;;;2.25;1.15;;;19.50;86.60;;;;;;5066179;28;20052;-66
2023/07/21 12:49:08;;;;;;;1.27;1.15;;;19.60;84.10;;;;;;5046532;28;20055;-66